Time;durP1;ratioP1;P1;durP2;ratioP2;P2;SDS_P1;SDS_P2;PMS_P1;PMS_P2;Temp;Humidity;BMP_temperature;BMP_pressure;BME280_temperature;BME280_humidity;BME280_pressure;Samples;Min_cycle;Max_cycle;Signal;HPM_P1;HPM_P2
2021/12/01 00:02:15;;;;;;;7.75;2.95;;;;;;;9.23;100.00;98359.53;10341593;28;20045;-78
2021/12/01 00:07:16;;;;;;;7.13;2.60;;;;;;;9.27;100.00;98368.66;10330861;28;20264;-76
2021/12/01 00:12:17;;;;;;;6.95;2.50;;;;;;;9.36;100.00;98388.63;10333922;28;20145;-76
2021/12/01 00:17:17;;;;;;;10.40;2.75;;;;;;;10.18;100.00;98495.03;10333357;28;20092;-76
2021/12/01 00:22:19;;;;;;;9.70;2.70;;;;;;;10.21;100.00;98473.41;10334098;28;20046;-76
2021/12/01 00:27:20;;;;;;;8.80;2.63;;;;;;;9.48;100.00;98325.19;10333727;28;20486;-78
2021/12/01 00:32:21;;;;;;;5.63;2.17;;;;;;;10.22;100.00;98419.28;10333346;28;20053;-76
2021/12/01 00:37:22;;;;;;;9.40;2.10;;;;;;;9.44;100.00;98300.13;10332591;28;20512;-76
2021/12/01 00:42:23;;;;;;;7.38;2.40;;;;;;;9.73;100.00;98354.47;10332349;28;20048;-76
2021/12/01 00:47:31;;;;;;;6.82;2.20;;;;;;;10.10;100.00;98428.94;10332723;28;20033;-77
2021/12/01 00:52:32;;;;;;;4.03;1.98;;;;;;;9.09;100.00;98282.75;10332057;28;20035;-76
2021/12/01 00:57:33;;;;;;;8.27;2.15;;;;;;;9.82;100.00;98392.97;10348069;28;20132;-76
2021/12/01 01:02:35;;;;;;;6.13;1.77;;;;;;;8.53;100.00;98161.53;10332864;28;20093;-76
2021/12/01 01:07:36;;;;;;;7.38;2.00;;;;;;;9.37;100.00;98286.94;10331637;28;20569;-76
2021/12/01 01:18:05;;;;;;;4.65;1.58;;;;;;;9.39;100.00;98221.25;10331707;28;20422;-77
2021/12/01 01:23:06;;;;;;;5.38;1.23;;;;;;;9.94;100.00;98311.72;10331343;28;20145;-76
2021/12/01 01:28:07;;;;;;;4.32;1.00;;;;;;;9.91;99.42;98280.31;10331589;28;20137;-76
2021/12/01 01:33:07;;;;;;;3.95;1.30;;;;;;;8.49;98.24;98139.16;10331060;28;20097;-75
2021/12/01 01:38:08;;;;;;;4.32;0.98;;;;;;;9.58;97.51;98310.47;10331893;28;20471;-76
2021/12/01 01:43:10;;;;;;;2.28;1.08;;;;;;;9.25;96.94;98264.75;10331577;28;20038;-76
2021/12/01 01:48:13;;;;;;;4.18;1.25;;;;;;;8.60;95.97;98170.25;10331007;28;20566;-75
2021/12/01 01:53:24;;;;;;;2.53;1.20;;;;;;;9.90;95.45;98447.59;10331335;28;20046;-75
2021/12/01 01:58:28;;;;;;;11.13;1.40;;;;;;;9.20;96.34;98328.16;10330366;28;20565;-75
2021/12/01 02:03:29;;;;;;;4.32;1.27;;;;;;;9.69;96.86;98400.97;10335809;28;20046;-76
2021/12/01 02:08:34;;;;;;;5.95;1.15;;;;;;;9.51;97.66;98344.16;10339225;28;20046;-76
2021/12/01 02:13:36;;;;;;;3.65;1.10;;;;;;;9.56;98.03;98376.13;10338511;28;20434;-75
2021/12/01 02:18:38;;;;;;;7.32;1.10;;;;;;;9.26;98.02;98382.94;10338242;28;20141;-76
2021/12/01 02:23:47;;;;;;;5.78;1.10;;;;;;;8.84;98.27;98374.47;10338241;28;20042;-76
2021/12/01 02:28:51;;;;;;;4.22;0.95;;;;;;;9.33;99.35;98479.13;10337434;28;20050;-76
2021/12/01 02:33:53;;;;;;;5.05;0.98;;;;;;;9.24;99.46;98520.09;10338639;28;20502;-76
2021/12/01 02:38:54;;;;;;;2.60;0.82;;;;;;;9.22;100.00;98530.13;10337517;28;20088;-76
2021/12/01 02:43:55;;;;;;;3.38;1.20;;;;;;;8.97;100.00;98468.97;10338156;28;20046;-76
2021/12/01 02:48:57;;;;;;;8.13;1.52;;;;;;;8.47;100.00;98389.94;10336645;28;20509;-76
2021/12/01 02:53:59;;;;;;;6.50;1.80;;;;;;;9.11;100.00;98460.00;10337218;28;20042;-76
2021/12/01 02:59:02;;;;;;;6.22;1.77;;;;;;;9.00;100.00;98416.41;10336677;28;20494;-76
2021/12/01 03:04:04;;;;;;;6.57;1.50;;;;;;;8.79;100.00;98401.53;10339039;28;20554;-76
2021/12/01 03:09:06;;;;;;;4.35;1.20;;;;;;;8.61;100.00;98370.38;10336919;28;20506;-76
2021/12/01 03:14:11;;;;;;;5.57;2.40;;;;;;;7.82;100.00;98320.00;10335968;28;20487;-76
2021/12/01 03:19:12;;;;;;;6.20;1.95;;;;;;;8.81;100.00;98471.00;10335681;28;20044;-76
2021/12/01 03:24:13;;;;;;;4.82;1.88;;;;;;;7.93;100.00;98353.81;10335465;28;20562;-77
2021/12/01 03:29:15;;;;;;;2.97;1.40;;;;;;;8.90;100.00;98513.97;10335967;28;20128;-75
2021/12/01 03:34:16;;;;;;;2.17;1.40;;;;;;;9.05;100.00;98556.97;10336065;28;20046;-76
2021/12/01 03:39:17;;;;;;;17.13;1.42;;;;;;;8.93;100.00;98518.06;10359471;28;20096;-77
2021/12/01 03:44:18;;;;;;;3.47;1.30;;;;;;;8.18;100.00;98438.69;10374619;28;20045;-76
2021/12/01 03:49:20;;;;;;;3.03;1.45;;;;;;;9.13;100.00;98577.97;10375050;28;20077;-76
2021/12/01 03:54:21;;;;;;;3.08;1.40;;;;;;;7.23;100.00;98277.34;10372467;28;20096;-77
2021/12/01 03:59:21;;;;;;;6.10;1.52;;;;;;;9.01;100.00;98565.53;10371059;28;20390;-76
2021/12/01 04:04:22;;;;;;;3.75;1.40;;;;;;;8.69;100.00;98525.56;10370786;28;20049;-72
2021/12/01 04:09:24;;;;;;;5.47;1.52;;;;;;;8.59;100.00;98510.06;10379590;28;20064;-71
2021/12/01 04:14:25;;;;;;;6.35;1.75;;;;;;;8.14;100.00;98448.03;10415928;28;20089;-74
2021/12/01 04:19:26;;;;;;;3.38;1.45;;;;;;;8.28;100.00;98477.97;10372428;28;20054;-71
2021/12/01 04:24:27;;;;;;;5.07;1.92;;;;;;;8.99;100.00;98597.50;10341094;28;20485;-73
2021/12/01 04:29:28;;;;;;;4.97;1.60;;;;;;;7.49;100.00;98394.69;10333574;28;20401;-78
2021/12/01 04:34:31;;;;;;;5.70;1.73;;;;;;;9.01;100.00;98651.09;10333436;28;20050;-73
2021/12/01 04:39:33;;;;;;;8.43;1.80;;;;;;;8.95;100.00;98645.81;10332339;28;20483;-74
2021/12/01 04:44:38;;;;;;;3.97;1.60;;;;;;;8.97;100.00;98643.75;10332600;28;20053;-71
2021/12/01 04:49:39;;;;;;;5.22;1.73;;;;;;;8.91;100.00;98658.59;10337747;28;20045;-75
2021/12/01 04:54:40;;;;;;;3.33;1.50;;;;;;;8.98;100.00;98658.66;10341926;28;20042;-75
2021/12/01 04:59:41;;;;;;;4.13;1.70;;;;;;;8.59;99.82;98658.28;10368752;28;20490;-75
2021/12/01 05:04:42;;;;;;;7.05;1.75;;;;;;;8.50;100.00;98682.47;10372865;28;20044;-75
2021/12/01 05:09:43;;;;;;;4.20;1.60;;;;;;;8.38;100.00;98658.34;10371940;28;20050;-74
2021/12/01 05:14:44;;;;;;;9.05;2.15;;;;;;;8.41;100.00;98639.47;10372730;28;20422;-74
2021/12/01 05:19:45;;;;;;;6.07;2.13;;;;;;;8.57;99.91;98664.78;10372943;28;20046;-74
2021/12/01 05:24:46;;;;;;;4.85;2.63;;;;;;;8.65;99.45;98686.63;10372370;28;20084;-75
2021/12/01 05:29:46;;;;;;;6.20;2.38;;;;;;;9.48;99.21;98775.78;10371723;28;20506;-75
2021/12/01 05:34:47;;;;;;;4.93;1.95;;;;;;;9.73;97.09;98818.50;10371875;28;20512;-74
2021/12/01 05:39:48;;;;;;;4.38;1.40;;;;;;;8.92;94.86;98639.06;10381437;28;20401;-74
2021/12/01 05:44:49;;;;;;;3.05;1.23;;;;;;;9.51;93.25;98741.75;10380936;28;20042;-75
2021/12/01 05:49:50;;;;;;;3.05;0.77;;;;;;;10.11;90.90;98844.47;10380158;28;20056;-75
2021/12/01 05:54:51;;;;;;;1.83;0.88;;;;;;;9.49;85.73;98733.19;10379451;28;20130;-75
2021/12/01 05:59:52;;;;;;;0.90;0.30;;;;;;;10.39;77.94;98772.66;10379988;28;20532;-74
2021/12/01 06:04:53;;;;;;;1.90;0.20;;;;;;;9.80;66.79;98674.25;10379604;28;20061;-73
2021/12/01 06:09:54;;;;;;;0.45;0.20;;;;;;;10.58;63.98;98801.03;10378604;28;20125;-72
2021/12/01 06:14:56;;;;;;;5.65;0.55;;;;;;;10.50;63.93;98835.78;10379656;28;20140;-73
2021/12/01 06:19:57;;;;;;;3.13;0.30;;;;;;;9.95;63.60;98740.38;10379201;28;20593;-75
2021/12/01 06:24:57;;;;;;;1.38;0.20;;;;;;;9.68;63.84;98762.56;10378626;28;20120;-73
2021/12/01 06:29:58;;;;;;;1.55;0.22;;;;;;;9.75;64.46;98761.59;10378507;28;20046;-74
2021/12/01 06:34:59;;;;;;;1.27;0.20;;;;;;;8.96;66.45;98674.72;10378347;28;20088;-74
2021/12/01 12:14:26;;;;;;;6.83;4.30;;;;;;;6.05;63.05;99153.41;10553528;27;1811590;-75
2021/12/01 12:19:49;;;;;;;7.60;3.70;;;;;;;6.81;63.60;99342.81;10573816;28;20311;-77
2021/12/01 12:24:53;;;;;;;6.40;3.63;;;;;;;6.02;63.12;99251.28;10573134;28;20594;-76
2021/12/01 12:29:57;;;;;;;5.33;3.00;;;;;;;6.60;63.36;99371.56;10563199;28;20449;-77
2021/12/01 12:35:02;;;;;;;9.20;5.55;;;;;;;6.19;62.29;99355.72;10554461;28;20130;-76
2021/12/01 12:40:25;;;;;;;7.70;4.93;;;;;;;6.16;61.83;99361.34;10559763;28;20131;-75
2021/12/01 12:45:26;;;;;;;12.90;5.47;;;;;;;6.01;61.29;99387.50;10512543;28;20063;-77
2021/12/01 12:50:27;;;;;;;8.55;4.90;;;;;;;4.73;61.42;99214.78;10554388;28;20477;-76
2021/12/01 14:50:22;;;;;;;11.43;3.20;;;;;;;2.22;74.11;99586.03;10524306;27;20426;-77
2021/12/01 14:55:24;;;;;;;6.35;3.53;;;;;;;1.81;75.76;99509.25;10515545;28;20190;-77
2021/12/01 15:00:30;;;;;;;6.00;3.67;;;;;;;2.69;75.83;99626.47;10529808;28;20182;-77
2021/12/01 15:05:31;;;;;;;7.63;3.40;;;;;;;2.08;75.33;99506.00;10532277;28;20552;-77
2021/12/01 15:10:47;;;;;;;10.20;3.90;;;;;;;1.70;75.52;99455.16;10531545;28;20165;-78
2021/12/01 15:16:02;;;;;;;11.10;5.20;;;;;;;2.76;76.67;99615.44;10530558;28;20538;-77
2021/12/01 15:21:22;;;;;;;6.65;4.05;;;;;;;2.01;75.55;99481.31;10531581;28;20127;-77
2021/12/01 15:26:26;;;;;;;8.13;3.95;;;;;;;2.76;74.86;99631.16;10530804;28;20506;-78
2021/12/01 15:31:30;;;;;;;7.07;4.20;;;;;;;1.63;75.32;99498.56;10531182;28;20039;-78
2021/12/01 15:36:31;;;;;;;11.13;4.50;;;;;;;2.16;77.12;99639.81;10530485;28;20455;-77
2021/12/01 15:41:32;;;;;;;8.52;4.68;;;;;;;-0.01;77.38;99311.81;10516849;28;20040;-78
2021/12/01 15:46:33;;;;;;;8.07;4.78;;;;;;;-0.35;77.78;99281.63;10527589;28;20052;-78
2021/12/01 15:51:35;;;;;;;10.38;4.95;;;;;;;1.18;77.51;99559.06;10521600;28;20044;-78
2021/12/01 15:56:37;;;;;;;9.25;4.82;;;;;;;0.14;77.42;99401.16;10523854;28;20092;-78
2021/12/01 16:01:38;;;;;;;41.65;16.85;;;;;;;0.44;77.51;99444.00;10493499;28;20055;-78
2021/12/01 16:06:41;;;;;;;28.85;11.55;;;;;;;0.21;77.47;99472.84;10499728;28;20212;-79
2021/12/01 16:11:42;;;;;;;18.38;6.50;;;;;;;1.18;78.29;99636.72;10499783;28;20029;-78
2021/12/01 16:16:46;;;;;;;9.40;4.90;;;;;;;-0.05;79.00;99447.97;10492414;28;20051;-79
2021/12/01 16:21:48;;;;;;;6.70;4.38;;;;;;;1.27;78.90;99649.88;10492462;28;20037;-79
2021/12/01 16:26:51;;;;;;;8.35;4.65;;;;;;;-0.73;79.17;99301.16;10497514;28;20040;-79
2021/12/01 16:31:52;;;;;;;8.68;4.60;;;;;;;0.06;79.20;99454.94;10492897;28;20423;-80
2021/12/01 16:36:53;;;;;;;8.00;4.38;;;;;;;-0.44;78.35;99387.56;10490977;28;20036;-80
2021/12/01 16:41:54;;;;;;;8.07;4.15;;;;;;;-0.02;78.84;99526.06;10496473;28;20036;-80
2021/12/01 16:46:56;;;;;;;7.13;3.95;;;;;;;0.24;79.32;99607.59;10496722;28;20049;-80
2021/12/01 16:51:57;;;;;;;8.50;4.00;;;;;;;-0.35;79.37;99508.66;10486090;28;20117;-79
2021/12/01 16:56:58;;;;;;;7.85;4.38;;;;;;;-0.59;80.66;99480.88;10489735;28;20047;-80
2021/12/01 17:02:00;;;;;;;6.55;3.83;;;;;;;0.15;79.71;99588.25;10492580;28;20047;-80
2021/12/01 17:07:13;;;;;;;7.93;3.80;;;;;;;0.01;80.82;99613.78;10491676;28;20043;-80
2021/12/01 17:12:15;;;;;;;8.20;4.00;;;;;;;0.46;80.11;99685.13;10489834;28;20044;-79
2021/12/01 17:17:17;;;;;;;5.45;3.83;;;;;;;0.98;80.53;99750.78;10494141;28;20048;-79
2021/12/01 17:22:17;;;;;;;7.50;4.50;;;;;;;0.58;79.97;99665.03;10489428;28;20054;-80
2021/12/01 17:27:23;;;;;;;5.88;3.80;;;;;;;0.14;79.57;99593.56;10478518;28;20075;-80
2021/12/01 17:32:25;;;;;;;8.77;4.10;;;;;;;0.57;79.52;99668.59;10495437;28;20037;-80
2021/12/01 17:37:26;;;;;;;5.35;3.50;;;;;;;0.32;79.48;99630.50;10491927;28;20040;-80
2021/12/01 17:42:28;;;;;;;7.03;3.67;;;;;;;0.66;79.34;99717.56;10468538;28;20048;-80
2021/12/01 17:47:30;;;;;;;7.55;3.83;;;;;;;0.40;80.66;99678.59;10486656;28;20060;-80
2021/12/01 17:52:30;;;;;;;7.05;3.67;;;;;;;0.77;80.94;99724.53;10484190;28;20086;-83
2021/12/01 17:57:31;;;;;;;5.35;3.22;;;;;;;0.10;80.18;99587.78;10491836;28;20135;-81
2021/12/01 18:02:33;;;;;;;4.85;3.22;;;;;;;0.81;80.40;99703.28;10473113;28;20495;-80
2021/12/01 18:07:33;;;;;;;4.65;3.03;;;;;;;0.38;79.93;99649.13;10459155;28;20167;-80
2021/12/01 18:12:35;;;;;;;6.28;3.25;;;;;;;1.37;80.97;99802.53;10485138;28;20174;-80
2021/12/01 18:17:36;;;;;;;6.75;3.60;;;;;;;1.37;80.40;99820.03;10481398;28;20139;-80
2021/12/01 18:22:38;;;;;;;5.75;3.33;;;;;;;0.39;80.21;99676.94;10495517;28;20044;-79
2021/12/01 18:27:39;;;;;;;12.98;3.42;;;;;;;1.05;80.23;99814.75;10496446;28;20385;-80
2021/12/01 18:32:40;;;;;;;5.75;3.17;;;;;;;0.88;80.16;99809.03;10496082;28;20127;-80
2021/12/01 18:37:42;;;;;;;6.07;3.30;;;;;;;0.07;80.40;99675.97;10491364;28;20411;-79
2021/12/01 18:42:43;;;;;;;5.85;3.40;;;;;;;0.50;80.93;99762.31;10480981;28;20044;-80
2021/12/01 18:47:46;;;;;;;6.10;3.60;;;;;;;-1.46;79.65;99477.84;10496200;28;20048;-80
2021/12/01 18:52:47;;;;;;;6.63;3.42;;;;;;;-0.47;81.74;99672.19;10495818;28;20040;-80
2021/12/01 18:57:48;;;;;;;7.22;3.33;;;;;;;-0.20;81.49;99698.00;10490744;28;20492;-80
2021/12/01 19:02:49;;;;;;;7.30;3.67;;;;;;;-0.14;81.67;99692.31;10479007;28;20045;-79
2021/12/01 19:07:51;;;;;;;8.82;3.65;;;;;;;-0.49;80.98;99661.03;10496071;28;20059;-80
2021/12/01 19:12:54;;;;;;;9.85;4.20;;;;;;;-0.13;82.23;99695.75;10495598;28;20178;-80
2021/12/01 19:17:55;;;;;;;6.63;3.58;;;;;;;-0.27;81.13;99655.00;10491112;28;20040;-80
2021/12/01 19:22:58;;;;;;;6.93;3.40;;;;;;;-0.10;81.59;99722.44;10495763;28;20129;-80
2021/12/01 19:28:00;;;;;;;7.38;3.72;;;;;;;0.39;81.80;99798.88;10494787;28;20048;-80
2021/12/01 19:33:01;;;;;;;9.55;3.83;;;;;;;0.24;81.36;99759.09;10496704;28;20043;-80
2021/12/01 19:38:02;;;;;;;7.80;3.95;;;;;;;-1.48;82.31;99521.41;10502880;28;20041;-80
2021/12/01 19:43:05;;;;;;;8.18;3.78;;;;;;;-0.59;82.98;99626.13;10502957;28;20036;-79
2021/12/01 19:48:09;;;;;;;6.07;3.83;;;;;;;-1.11;82.51;99549.16;10501438;28;20484;-80
2021/12/01 19:53:10;;;;;;;19.52;4.40;;;;;;;-0.05;81.36;99728.16;10495590;28;20403;-78
2021/12/01 19:58:11;;;;;;;7.18;3.63;;;;;;;-0.62;82.06;99668.94;10501907;28;20071;-78
2021/12/01 20:03:12;;;;;;;7.28;4.20;;;;;;;0.10;83.78;99774.97;10470521;28;20040;-78
2021/12/01 20:08:14;;;;;;;9.50;4.07;;;;;;;-0.74;84.23;99607.25;10461012;28;20059;-78
2021/12/01 20:13:15;;;;;;;6.38;3.83;;;;;;;0.45;83.63;99795.84;10459399;28;20424;-78
2021/12/01 20:18:16;;;;;;;19.17;4.35;;;;;;;0.38;82.81;99766.69;10459213;28;20037;-78
2021/12/01 20:23:17;;;;;;;16.05;4.13;;;;;;;0.41;82.94;99779.53;10458944;28;20135;-78
2021/12/01 20:28:18;;;;;;;10.00;3.90;;;;;;;-2.01;82.62;99382.94;10459153;28;20131;-78
2021/12/01 20:33:19;;;;;;;5.45;3.60;;;;;;;-0.74;83.58;99552.47;10458605;28;20397;-78
2021/12/01 20:38:22;;;;;;;8.00;3.55;;;;;;;-0.66;83.52;99584.00;10459027;28;20037;-78
2021/12/01 20:43:23;;;;;;;7.50;4.00;;;;;;;0.30;82.90;99729.03;10458690;28;20049;-78
2021/12/01 20:53:34;;;;;;;11.50;3.83;;;;;;;0.32;82.78;99748.06;10458691;28;20122;-78
2021/12/01 20:58:48;;;;;;;12.88;5.13;;;;;;;0.13;82.95;99727.75;10458241;28;20094;-78
2021/12/01 21:03:54;;;;;;;27.63;13.63;;;;;;;-0.85;82.21;99552.44;10458445;28;20044;-78
2021/12/01 21:09:03;;;;;;;28.13;14.20;;;;;;;-0.51;82.77;99618.56;10457568;28;20484;-78
2021/12/01 21:14:05;;;;;;;19.88;9.68;;;;;;;0.47;82.92;99808.75;10458264;28;20389;-78
2021/12/01 21:19:06;;;;;;;10.15;4.82;;;;;;;-0.46;82.32;99673.84;10457038;28;20041;-78
2021/12/01 21:24:08;;;;;;;10.95;4.80;;;;;;;-1.20;82.57;99598.44;10457171;28;20411;-78
2021/12/01 21:29:10;;;;;;;13.45;6.05;;;;;;;-0.84;83.82;99654.00;10456413;28;20063;-78
2021/12/01 21:34:12;;;;;;;18.35;7.40;;;;;;;-1.25;83.09;99633.56;10456892;28;20128;-78
2021/12/01 21:39:13;;;;;;;18.02;8.00;;;;;;;-0.07;82.69;99810.16;10471408;28;20049;-78
2021/12/01 21:44:14;;;;;;;16.38;9.57;;;;;;;-0.74;82.72;99766.34;10456846;28;20048;-78
2021/12/01 21:49:14;;;;;;;13.85;6.82;;;;;;;-1.32;83.65;99663.59;10456974;28;20095;-78
2021/12/01 21:54:19;;;;;;;12.57;5.63;;;;;;;-0.12;84.91;99817.50;10456007;28;20051;-77
2021/12/01 21:59:21;;;;;;;;;;;;;;;0.01;83.94;99818.28;10456327;28;20076;-78
2021/12/01 22:04:24;;;;;;;12.20;6.15;;;;;;;-0.19;83.83;99804.06;10455067;28;19917;-78
2021/12/01 22:09:26;;;;;;;10.80;5.80;;;;;;;-0.81;83.48;99742.44;10456404;28;20045;-78
2021/12/01 22:14:32;;;;;;;13.65;5.40;;;;;;;-0.29;83.75;99827.41;10455438;28;20127;-78
2021/12/01 22:19:32;;;;;;;8.95;4.55;;;;;;;-1.03;82.87;99722.31;10455226;28;20075;-78
2021/12/01 22:24:39;;;;;;;6.38;4.35;;;;;;;-1.90;83.83;99601.66;10455359;28;20063;-78
2021/12/01 22:29:46;;;;;;;9.02;3.50;;;;;;;-0.53;83.50;99788.25;10454995;28;20043;-78
2021/12/01 22:35:03;;;;;;;11.02;4.25;;;;;;;-1.01;83.92;99707.41;10454006;28;20557;-78
2021/12/01 22:40:08;;;;;;;13.10;3.70;;;;;;;-1.64;85.00;99631.06;10454563;28;20040;-78
2021/12/01 22:45:09;;;;;;;6.78;4.00;;;;;;;-0.69;84.78;99769.44;10454754;28;20045;-78
2021/12/01 22:50:13;;;;;;;10.70;3.92;;;;;;;-0.42;84.62;99797.06;10454722;28;20102;-78
2021/12/01 22:55:14;;;;;;;;;;;;;;;-0.05;83.67;99842.22;10478008;28;20045;-78
2021/12/01 23:00:43;;;;;;;7.60;4.00;;;;;;;-0.04;84.45;99860.38;10483936;28;19917;-78
2021/12/01 23:05:47;;;;;;;7.40;4.28;;;;;;;0.31;86.44;99880.47;10455456;28;20523;-78
2021/12/01 23:10:50;;;;;;;7.78;4.45;;;;;;;-0.27;86.21;99736.78;10460153;28;20574;-78
2021/12/01 23:15:52;;;;;;;6.65;4.32;;;;;;;-0.48;85.86;99670.50;10462239;28;20056;-78
2021/12/01 23:20:53;;;;;;;6.65;3.65;;;;;;;0.58;84.35;99832.31;10462227;28;20066;-78
2021/12/01 23:31:15;;;;;;;6.60;4.38;;;;;;;0.82;85.19;99876.66;10461565;28;20128;-77
2021/12/01 23:36:20;;;;;;;6.63;4.40;;;;;;;1.00;85.32;99895.34;10461968;28;20068;-77
2021/12/01 23:41:22;;;;;;;8.60;4.38;;;;;;;1.08;85.77;99890.38;10461323;28;21024;-78
2021/12/01 23:46:41;;;;;;;9.05;5.13;;;;;;;0.43;85.45;99774.19;10461244;28;20072;-78
2021/12/01 23:51:44;;;;;;;12.15;4.30;;;;;;;0.18;84.13;99725.59;10476523;28;20118;-79
2021/12/01 23:56:45;;;;;;;6.82;4.10;;;;;;;1.14;84.94;99888.09;10460732;28;20045;-79
